Pittston, PA (18640)

7:06 PM EDT on May 01, 2016 (GMT -0400)
West Wyoming | | Change Station

Elev 745 ft 41.32 °N, 75.85 °W | Updated 7 minutes ago

Overcast
Overcast
49.8 °F
Feels Like 50 °F
N
0.0
Wind Variable Wind from South

Today
High -- | Low -- °F
--% Chance of Precip.
Yesterday
High -- | Low -- °F
Precip. -- in
Pressure 30.04 in
Visibility 10.0 miles
Clouds Overcast 1800 ft
Windchill 50 °F
Dew Point 47 °F
Humidity 89%
Rainfall in
Snow Depth Not available.
5:59 AM 8:01 PM
Waning Crescent, 31% visible
METAR KAVP 012254Z VRB03KT 10SM OVC018 09/07 A3003 RMK AO2 SLP170 T00940067 $
Pressure 30.04 in
Visibility 10.0 miles
Clouds Overcast 1800 ft
Windchill 50 °F
Dew Point 47 °F
Humidity 89%
Rainfall in
Snow Depth Not available.
5:59 AM 8:01 PM
Waning Crescent, 31% visible
METAR KAVP 012254Z VRB03KT 10SM OVC018 09/07 A3003 RMK AO2 SLP170 T00940067 $

10-Day Weather Forecast

Almanac

Astronomy

May. 01, 2016 Rise Set
Actual Time
Civil Twilight
Nautical Twilight
Astronomical Twilight
Moon
Length of Visible Light
Length of Day
Tomorrow will be .
, % of the Moon is Illuminated

Today's Extremes

State Highs State Lows

Community

WunderPhotos

Upload Photos

1,909,289 photos uploaded!

WunderBlog® & News

Nearby

Air Quality

  Air Quality AQ Index Pollutant
Not available.

Snow Depth

Station Depth Elevation

Earthquake Activity

City Distance Mag. Time & Date
Minimum magnitude displayed is 2.5.

Coastal Water Temperatures

Place Temperature

Stations

Nearby Weather Stations

Station Location Temp. Windchill Dew Point Humidity Wind Precip. Elev Updated Type
                   

Watches & Warnings

There are currently no watches in effect.